Terminal Aerodrome Forecast
Issued by NWS

Home | Current Version | Previous Version | Text Only | Print | Product List | Glossary On
Versions: 1 2 3 4 5 6 7 8 9 10 11 12 13 14 15 16 17 18 19
019
FTUS44 KCRP 271127
TAFALI
TAF
KALI 271127Z 2712/2812 14009KT P6SM OVC025
     FM271500 17014G18KT P6SM BKN030
      TEMPO 2718/2721 VRB15G25KT 5SM TSRA OVC025CB
     FM272100 15015G25KT P6SM VCTS BKN040CB
     FM280200 15012KT P6SM SCT025 BKN250
     FM280700 12005KT P6SM BKN015=

USA.gov is the U.S. government's official web portal to all federal, state and local government web resources and services.